createdAt,value
2023-03-06T00:00:07.213Z,944.1
2023-03-06T00:01:09.182Z,944.1
2023-03-06T00:02:11.043Z,944.1
2023-03-06T00:03:12.837Z,944.1
2023-03-06T00:04:14.834Z,944.1
2023-03-06T00:05:16.675Z,944.1
2023-03-06T00:06:18.630Z,944.1
2023-03-06T00:07:20.481Z,944.2
2023-03-06T00:08:22.330Z,944.1
2023-03-06T00:09:24.186Z,944.1
2023-03-06T00:10:26.024Z,944.2
2023-03-06T00:11:27.879Z,944.2
2023-03-06T00:12:29.726Z,944.1
2023-03-06T00:13:31.693Z,944.1
2023-03-06T00:14:33.536Z,944.1
2023-03-06T00:15:35.304Z,944.1
2023-03-06T00:16:37.310Z,944.1
2023-03-06T00:17:39.324Z,944.1
2023-03-06T00:18:41.135Z,944.1
2023-03-06T00:19:42.990Z,944.1
2023-03-06T00:20:44.833Z,944.1
2023-03-06T00:21:46.583Z,944.1
2023-03-06T00:22:48.430Z,944
2023-03-06T00:23:50.383Z,944
2023-03-06T00:24:52.244Z,944
2023-03-06T00:25:54.087Z,944.1
2023-03-06T00:26:55.944Z,944
2023-03-06T00:27:57.801Z,944.1
2023-03-06T00:28:59.940Z,944.1
2023-03-06T00:30:01.838Z,944.1
2023-03-06T00:31:03.749Z,944.1
2023-03-06T00:32:05.824Z,944.1
2023-03-06T00:33:07.783Z,944.1
2023-03-06T00:34:09.707Z,944.1
2023-03-06T00:35:11.581Z,944.1
2023-03-06T00:36:13.331Z,944.1
2023-03-06T00:37:15.261Z,944.1
2023-03-06T00:38:17.140Z,944.1
2023-03-06T00:39:18.947Z,944.1
2023-03-06T00:40:20.808Z,944.1
2023-03-06T00:41:22.659Z,944.1
2023-03-06T00:42:24.532Z,944.1
2023-03-06T00:43:26.355Z,944.1
2023-03-06T00:44:28.208Z,944.1
2023-03-06T00:45:30.413Z,944.1
2023-03-06T00:46:32.435Z,944.1
2023-03-06T00:47:34.279Z,944.1
2023-03-06T00:48:36.156Z,944
2023-03-06T00:49:40.625Z,944
2023-03-06T00:50:42.481Z,944
2023-03-06T00:51:44.313Z,944
2023-03-06T00:52:46.180Z,944
2023-03-06T00:53:48.028Z,944
2023-03-06T00:54:49.698Z,944
2023-03-06T00:55:51.533Z,944
2023-03-06T00:56:53.382Z,944
2023-03-06T00:57:55.344Z,944
2023-03-06T00:58:57.276Z,944
2023-03-06T00:59:59.136Z,944
2023-03-06T01:01:01.284Z,944
2023-03-06T01:02:03.506Z,944
2023-03-06T01:03:05.719Z,944
2023-03-06T01:04:07.672Z,944
2023-03-06T01:05:09.603Z,944
2023-03-06T01:06:11.387Z,944
2023-03-06T01:07:13.205Z,944
2023-03-06T01:08:15.062Z,944
2023-03-06T01:09:16.900Z,944
2023-03-06T01:10:18.859Z,944
2023-03-06T01:11:20.598Z,944
2023-03-06T01:12:23.991Z,944
2023-03-06T01:13:25.836Z,943.9
2023-03-06T01:14:27.584Z,943.9
2023-03-06T01:15:29.328Z,943.9
2023-03-06T01:16:31.431Z,943.9
2023-03-06T01:17:33.336Z,943.9
2023-03-06T01:18:35.087Z,944
2023-03-06T01:19:37.066Z,944
2023-03-06T01:20:38.897Z,944
2023-03-06T01:21:40.618Z,944
2023-03-06T01:22:42.407Z,944
2023-03-06T01:23:44.344Z,944
2023-03-06T01:24:46.185Z,944
2023-03-06T01:25:48.146Z,944
2023-03-06T01:26:49.957Z,944
2023-03-06T01:27:51.741Z,944
2023-03-06T01:28:53.693Z,944
2023-03-06T01:29:55.434Z,944
2023-03-06T01:30:57.394Z,944
2023-03-06T01:31:59.548Z,944
2023-03-06T01:33:01.605Z,944
2023-03-06T01:34:03.458Z,944
2023-03-06T01:35:05.249Z,944
2023-03-06T01:36:07.163Z,943.9
2023-03-06T01:37:08.892Z,944
2023-03-06T01:38:10.846Z,944
2023-03-06T01:39:12.696Z,943.9
2023-03-06T01:40:14.562Z,943.9
2023-03-06T01:41:16.510Z,943.9
2023-03-06T01:42:18.351Z,943.9
2023-03-06T01:43:20.132Z,944
2023-03-06T01:44:21.950Z,944
2023-03-06T01:45:23.772Z,944
2023-03-06T01:46:25.651Z,944
2023-03-06T01:47:27.819Z,944
2023-03-06T01:48:32.328Z,943.9
2023-03-06T01:49:34.170Z,944
2023-03-06T01:50:36.154Z,944
2023-03-06T01:51:37.989Z,943.9
2023-03-06T01:52:39.824Z,944
2023-03-06T01:53:41.683Z,943.9
2023-03-06T01:54:43.627Z,944
2023-03-06T01:55:45.412Z,943.9
2023-03-06T01:56:47.231Z,944
2023-03-06T01:57:49.090Z,943.9
2023-03-06T01:58:50.850Z,943.9
2023-03-06T01:59:52.774Z,944
2023-03-06T02:00:54.783Z,943.9
2023-03-06T02:01:56.795Z,943.9
2023-03-06T02:02:58.743Z,943.9
2023-03-06T02:04:00.584Z,943.9
2023-03-06T02:05:02.537Z,943.9
2023-03-06T02:06:04.410Z,943.9
2023-03-06T02:07:06.212Z,943.9
2023-03-06T02:08:08.187Z,944
2023-03-06T02:09:10.050Z,944
2023-03-06T02:10:11.897Z,944
2023-03-06T02:11:14.041Z,944
2023-03-06T02:12:16.007Z,943.9
2023-03-06T02:13:17.852Z,943.9
2023-03-06T02:14:19.706Z,944
2023-03-06T02:15:21.558Z,944
2023-03-06T02:16:23.520Z,943.9
2023-03-06T02:17:25.453Z,943.9
2023-03-06T02:18:27.318Z,944
2023-03-06T02:19:29.161Z,944
2023-03-06T02:20:31.114Z,944
2023-03-06T02:21:32.991Z,944
2023-03-06T02:22:34.916Z,944
2023-03-06T02:23:36.695Z,944
2023-03-06T02:24:38.625Z,944
2023-03-06T02:25:40.575Z,944
2023-03-06T02:26:42.413Z,944
2023-03-06T02:27:44.262Z,944
2023-03-06T02:28:46.318Z,944.1
2023-03-06T02:29:48.171Z,944.1
2023-03-06T02:30:50.293Z,944.1
2023-03-06T02:31:52.183Z,944.1
2023-03-06T02:32:53.953Z,944.2
2023-03-06T02:33:55.875Z,944.2
2023-03-06T02:34:57.738Z,944.2
2023-03-06T02:35:59.838Z,944.1
2023-03-06T02:37:01.867Z,944.1
2023-03-06T02:38:03.697Z,944.1
2023-03-06T02:39:05.556Z,944.1
2023-03-06T02:40:07.485Z,944.2
2023-03-06T02:41:09.346Z,944.2
2023-03-06T02:42:11.205Z,944.2
2023-03-06T02:43:12.939Z,944.2
2023-03-06T02:44:14.782Z,944.2
2023-03-06T02:45:16.641Z,944.2
2023-03-06T02:46:18.539Z,944.2
2023-03-06T02:47:20.551Z,944.2
2023-03-06T02:48:22.497Z,944.2
2023-03-06T02:49:26.911Z,944.2
2023-03-06T02:50:28.758Z,944.2
2023-03-06T02:51:30.598Z,944.2
2023-03-06T02:52:32.519Z,944.2
2023-03-06T02:53:34.372Z,944.2
2023-03-06T02:54:36.177Z,944.2
2023-03-06T02:55:37.997Z,944.3
2023-03-06T02:56:39.821Z,944.3
2023-03-06T02:57:41.699Z,944.3
2023-03-06T02:58:43.544Z,944.3
2023-03-06T02:59:45.405Z,944.3
2023-03-06T03:00:47.245Z,944.3
2023-03-06T03:01:49.495Z,944.3
2023-03-06T03:02:51.455Z,944.2
2023-03-06T03:03:53.410Z,944.3
2023-03-06T03:04:55.632Z,944.3
2023-03-06T03:05:57.552Z,944.3
2023-03-06T03:06:59.611Z,944.3
2023-03-06T03:08:01.645Z,944.3
2023-03-06T03:09:03.588Z,944.3
2023-03-06T03:10:05.433Z,944.3
2023-03-06T03:11:07.296Z,944.3
2023-03-06T03:12:09.145Z,944.3
2023-03-06T03:13:11.084Z,944.3
2023-03-06T03:14:12.949Z,944.2
2023-03-06T03:15:14.784Z,944.2
2023-03-06T03:16:16.917Z,944.2
2023-03-06T03:17:18.904Z,944.3
2023-03-06T03:18:20.845Z,944.2
2023-03-06T03:19:22.706Z,944.3
2023-03-06T03:20:24.448Z,944.2
2023-03-06T03:21:26.294Z,944.3
2023-03-06T03:22:30.888Z,944.3
2023-03-06T03:23:32.784Z,944.3
2023-03-06T03:24:34.801Z,944.3
2023-03-06T03:25:36.665Z,944.3
2023-03-06T03:26:38.527Z,944.3
2023-03-06T03:27:40.366Z,944.3
2023-03-06T03:28:42.224Z,944.3
2023-03-06T03:29:44.181Z,944.3
2023-03-06T03:30:46.167Z,944.3
2023-03-06T03:31:48.183Z,944.3
2023-03-06T03:32:49.897Z,944.3
2023-03-06T03:33:51.781Z,944.3
2023-03-06T03:34:53.746Z,944.4
2023-03-06T03:35:55.692Z,944.4
2023-03-06T03:36:57.536Z,944.3
2023-03-06T03:37:59.320Z,944.3
2023-03-06T03:39:01.164Z,944.3
2023-03-06T03:40:03.104Z,944.3
2023-03-06T03:41:04.940Z,944.3
2023-03-06T03:42:06.716Z,944.3
2023-03-06T03:43:08.526Z,944.4
2023-03-06T03:44:10.491Z,944.4
2023-03-06T03:45:12.441Z,944.4
2023-03-06T03:46:14.308Z,944.4
2023-03-06T03:47:16.131Z,944.4
2023-03-06T03:48:17.986Z,944.4
2023-03-06T03:49:19.741Z,944.4
2023-03-06T03:50:21.690Z,944.4
2023-03-06T03:51:23.563Z,944.4
2023-03-06T03:52:25.427Z,944.4
2023-03-06T03:53:29.873Z,944.4
2023-03-06T03:54:31.678Z,944.4
2023-03-06T03:55:33.506Z,944.5
2023-03-06T03:56:35.365Z,944.4
2023-03-06T03:57:37.203Z,944.4
2023-03-06T03:58:39.043Z,944.4
2023-03-06T03:59:40.822Z,944.4
2023-03-06T04:00:42.652Z,944.4
2023-03-06T04:01:44.617Z,944.5
2023-03-06T04:02:46.456Z,944.5
2023-03-06T04:03:48.293Z,944.5
2023-03-06T04:04:50.267Z,944.6
2023-03-06T04:05:52.030Z,944.6
2023-03-06T04:06:53.952Z,944.6
2023-03-06T04:07:55.802Z,944.5
2023-03-06T04:08:57.652Z,944.5
2023-03-06T04:09:59.631Z,944.5
2023-03-06T04:11:01.552Z,944.5
2023-03-06T04:12:03.397Z,944.5
2023-03-06T04:13:05.252Z,944.6
2023-03-06T04:14:07.067Z,944.5
2023-03-06T04:15:08.954Z,944.6
2023-03-06T04:16:10.941Z,944.6
2023-03-06T04:17:12.860Z,944.6
2023-03-06T04:18:14.709Z,944.6
2023-03-06T04:19:16.455Z,944.6
2023-03-06T04:20:18.305Z,944.6
2023-03-06T04:21:20.260Z,944.5
2023-03-06T04:22:22.102Z,944.6
2023-03-06T04:23:23.954Z,944.6
2023-03-06T04:24:25.800Z,944.6
2023-03-06T04:25:27.678Z,944.6
2023-03-06T04:26:29.712Z,944.6
2023-03-06T04:27:31.565Z,944.6
2023-03-06T04:28:33.315Z,944.6
2023-03-06T04:29:35.159Z,944.6
2023-03-06T04:30:37.223Z,944.6
2023-03-06T04:31:39.342Z,944.6
2023-03-06T04:32:41.578Z,944.6
2023-03-06T04:33:43.644Z,944.6
2023-03-06T04:34:45.638Z,944.6
2023-03-06T04:35:47.696Z,944.7
2023-03-06T04:36:49.482Z,944.7
2023-03-06T04:37:51.197Z,944.7
2023-03-06T04:38:53.133Z,944.6
2023-03-06T04:39:55.193Z,944.6
2023-03-06T04:40:57.275Z,944.7
2023-03-06T04:41:59.530Z,944.7
2023-03-06T04:43:01.769Z,944.7
2023-03-06T04:44:03.618Z,944.7
2023-03-06T04:45:05.570Z,944.7
2023-03-06T04:46:07.698Z,944.7
2023-03-06T04:47:09.680Z,944.7
2023-03-06T04:48:11.427Z,944.7
2023-03-06T04:49:13.385Z,944.7
2023-03-06T04:50:15.043Z,944.7
2023-03-06T04:51:16.879Z,944.7
2023-03-06T04:52:18.843Z,944.7
2023-03-06T04:53:20.614Z,944.8
2023-03-06T04:54:22.428Z,944.8
2023-03-06T04:55:24.757Z,944.8
2023-03-06T04:56:26.976Z,944.7
2023-03-06T04:57:28.910Z,944.7
2023-03-06T04:58:30.858Z,944.7
2023-03-06T04:59:32.698Z,944.7
2023-03-06T05:00:34.667Z,944.7
2023-03-06T05:01:36.501Z,944.8
2023-03-06T05:02:38.456Z,944.7
2023-03-06T05:03:40.518Z,944.7
2023-03-06T05:04:42.362Z,944.8
2023-03-06T05:05:44.211Z,944.8
2023-03-06T05:06:46.066Z,944.8
2023-03-06T05:07:47.857Z,944.8
2023-03-06T05:08:49.758Z,944.8
2023-03-06T05:09:51.614Z,944.8
2023-03-06T05:10:53.568Z,944.8
2023-03-06T05:11:55.431Z,944.8
2023-03-06T05:12:57.278Z,944.8
2023-03-06T05:13:59.144Z,944.7
2023-03-06T05:15:00.959Z,944.7
2023-03-06T05:16:02.920Z,944.7
2023-03-06T05:17:04.966Z,944.8
2023-03-06T05:18:06.821Z,944.8
2023-03-06T05:19:08.646Z,944.8
2023-03-06T05:20:10.634Z,944.8
2023-03-06T05:21:12.479Z,944.8
2023-03-06T05:22:14.313Z,944.8
2023-03-06T05:23:16.282Z,944.8
2023-03-06T05:24:18.223Z,944.8
2023-03-06T05:25:20.088Z,944.8
2023-03-06T05:26:21.927Z,944.9
2023-03-06T05:27:23.802Z,944.9
2023-03-06T05:28:25.592Z,944.9
2023-03-06T05:29:28.064Z,944.9
2023-03-06T05:30:30.244Z,944.9
2023-03-06T05:31:32.324Z,944.9
2023-03-06T05:32:36.338Z,944.9
2023-03-06T05:33:38.358Z,944.8
2023-03-06T05:34:40.308Z,944.9
2023-03-06T05:35:42.310Z,944.9
2023-03-06T05:36:44.313Z,945
2023-03-06T05:37:46.585Z,944.9
2023-03-06T05:38:48.939Z,945
2023-03-06T05:39:50.903Z,944.9
2023-03-06T05:40:52.764Z,944.9
2023-03-06T05:41:54.589Z,944.8
2023-03-06T05:42:56.471Z,944.8
2023-03-06T05:43:58.353Z,944.8
2023-03-06T05:45:00.175Z,944.8
2023-03-06T05:46:02.263Z,944.8
2023-03-06T05:47:04.262Z,944.8
2023-03-06T05:48:05.919Z,944.8
2023-03-06T05:49:07.855Z,944.9
2023-03-06T05:50:09.581Z,944.8
2023-03-06T05:51:11.393Z,944.8
2023-03-06T05:52:13.206Z,944.9
2023-03-06T05:53:15.163Z,944.9
2023-03-06T05:54:17.109Z,944.9
2023-03-06T05:55:18.854Z,944.8
2023-03-06T05:56:20.634Z,944.8
2023-03-06T05:57:25.088Z,944.8
2023-03-06T05:58:26.985Z,944.9
2023-03-06T05:59:28.926Z,944.9
2023-03-06T06:00:30.759Z,944.9
2023-03-06T06:01:32.616Z,944.9
2023-03-06T06:02:34.589Z,945
2023-03-06T06:03:36.819Z,945
2023-03-06T06:04:38.671Z,945
2023-03-06T06:05:40.532Z,945
2023-03-06T06:06:42.208Z,945
2023-03-06T06:07:44.039Z,945.1
2023-03-06T06:08:45.866Z,945.1
2023-03-06T06:09:47.717Z,945.1
2023-03-06T06:10:53.785Z,945.1
2023-03-06T06:11:55.621Z,945.1
2023-03-06T06:12:57.476Z,945.1
2023-03-06T06:13:59.448Z,945.2
2023-03-06T06:15:01.381Z,945.1
2023-03-06T06:16:03.452Z,945.2
2023-03-06T06:17:05.279Z,945.1
2023-03-06T06:18:07.136Z,945.1
2023-03-06T06:19:08.972Z,945.1
2023-03-06T06:20:10.883Z,945.1
2023-03-06T06:21:12.672Z,945.1
2023-03-06T06:22:14.520Z,945.2
2023-03-06T06:23:16.288Z,945.2
2023-03-06T06:24:18.178Z,945.2
2023-03-06T06:25:20.071Z,945.2
2023-03-06T06:26:21.779Z,945.2
2023-03-06T06:27:23.473Z,945.2
2023-03-06T06:28:25.423Z,945.2
2023-03-06T06:29:27.402Z,945.2
2023-03-06T06:30:29.331Z,945.2
2023-03-06T06:31:31.491Z,945.2
2023-03-06T06:32:33.495Z,945.2
2023-03-06T06:33:35.421Z,945.2
2023-03-06T06:34:37.026Z,945.3
2023-03-06T06:35:39.026Z,945.3
2023-03-06T06:36:40.840Z,945.3
2023-03-06T06:37:42.605Z,945.3
2023-03-06T06:38:44.425Z,945.3
2023-03-06T06:39:46.290Z,945.3
2023-03-06T06:41:59.730Z,945.3
2023-03-06T06:43:29.819Z,945.2
2023-03-06T06:44:31.752Z,945.3
2023-03-06T06:45:33.735Z,945.3
2023-03-06T06:47:25.850Z,945.3
2023-03-06T06:48:28.222Z,945.3
2023-03-06T06:49:30.072Z,945.3
2023-03-06T06:50:31.925Z,945.4
2023-03-06T06:51:33.876Z,945.3
2023-03-06T06:52:35.722Z,945.4
2023-03-06T06:53:37.492Z,945.4
2023-03-06T06:54:39.222Z,945.4
2023-03-06T06:55:41.070Z,945.5
2023-03-06T06:56:42.920Z,945.4
2023-03-06T06:57:44.771Z,945.4
2023-03-06T06:58:46.631Z,945.4
2023-03-06T06:59:48.521Z,945.4
2023-03-06T07:00:50.540Z,945.4
2023-03-06T07:01:52.689Z,945.3
2023-03-06T07:02:55.044Z,945.4
2023-03-06T07:03:56.918Z,945.4
2023-03-06T07:05:05.990Z,945.3
2023-03-06T07:06:07.986Z,945.4
2023-03-06T07:07:09.712Z,945.4
2023-03-06T07:08:11.584Z,945.4
2023-03-06T07:09:13.447Z,945.4
2023-03-06T07:10:15.269Z,945.4
2023-03-06T07:11:17.007Z,945.4
2023-03-06T07:12:18.822Z,945.4
2023-03-06T07:13:20.602Z,945.4
2023-03-06T07:14:22.368Z,945.4
2023-03-06T07:15:24.337Z,945.3
2023-03-06T07:16:26.263Z,945.4
2023-03-06T07:17:28.118Z,945.3
2023-03-06T07:18:29.766Z,945.3
2023-03-06T07:19:31.602Z,945.4
2023-03-06T07:20:33.453Z,945.3
2023-03-06T07:21:35.404Z,945.3
2023-03-06T07:22:52.201Z,945.4
2023-03-06T07:23:54.080Z,945.4
2023-03-06T07:24:55.915Z,945.4
2023-03-06T07:25:57.842Z,945.4
2023-03-06T07:26:59.731Z,945.4
2023-03-06T07:28:02.106Z,945.4
2023-03-06T07:29:04.237Z,945.4
2023-03-06T07:30:05.985Z,945.4
2023-03-06T07:31:08.108Z,945.4
2023-03-06T07:32:10.321Z,945.5
2023-03-06T07:33:12.143Z,945.5
2023-03-06T07:34:13.862Z,945.4
2023-03-06T07:35:21.276Z,945.4
2023-03-06T07:36:23.115Z,945.4
2023-03-06T07:37:24.873Z,945.4
2023-03-06T07:38:26.538Z,945.4
2023-03-06T07:39:28.478Z,945.4
2023-03-06T07:40:30.323Z,945.4
2023-03-06T07:41:32.276Z,945.4
2023-03-06T07:42:34.126Z,945.4
2023-03-06T07:43:35.976Z,945.5
2023-03-06T07:44:37.934Z,945.5
2023-03-06T07:45:40.192Z,945.5
2023-03-06T07:46:42.315Z,945.5
2023-03-06T07:47:44.293Z,945.5
2023-03-06T07:48:45.938Z,945.5
2023-03-06T07:49:47.804Z,945.5
2023-03-06T07:50:49.645Z,945.5
2023-03-06T07:51:51.499Z,945.5
2023-03-06T07:52:53.271Z,945.5
2023-03-06T07:53:55.096Z,945.5
2023-03-06T07:54:56.775Z,945.5
2023-03-06T07:55:58.518Z,945.5
2023-03-06T07:57:00.331Z,945.5
2023-03-06T07:58:02.089Z,945.5
2023-03-06T07:59:04.043Z,945.6
2023-03-06T08:00:05.687Z,945.6
2023-03-06T08:01:07.440Z,945.5
2023-03-06T08:02:09.310Z,945.5
2023-03-06T08:03:11.417Z,945.5
2023-03-06T08:04:13.754Z,945.6
2023-03-06T08:05:15.762Z,945.6
2023-03-06T08:06:17.639Z,945.6
2023-03-06T08:07:19.447Z,945.5
2023-03-06T08:08:21.107Z,945.5
2023-03-06T08:09:22.881Z,945.5
2023-03-06T08:10:24.696Z,945.6
2023-03-06T08:11:26.428Z,945.5
2023-03-06T08:12:28.186Z,945.6
2023-03-06T08:13:29.930Z,945.5
2023-03-06T08:14:31.659Z,945.5
2023-03-06T08:15:33.525Z,945.5
2023-03-06T08:16:35.419Z,945.5
2023-03-06T08:17:37.540Z,945.5
2023-03-06T08:18:39.382Z,945.5
2023-03-06T08:19:41.297Z,945.5
2023-03-06T08:20:43.204Z,945.5
2023-03-06T08:21:45.047Z,945.5
2023-03-06T08:22:46.895Z,945.5
2023-03-06T08:23:48.674Z,945.5
2023-03-06T08:24:50.480Z,945.5
2023-03-06T08:25:52.343Z,945.5
2023-03-06T08:26:54.127Z,945.5
2023-03-06T08:27:55.928Z,945.5
2023-03-06T08:28:57.821Z,945.5
2023-03-06T08:29:59.518Z,945.5
2023-03-06T08:31:01.279Z,945.5
2023-03-06T08:32:03.413Z,945.5
2023-03-06T08:33:05.338Z,945.5
2023-03-06T08:34:07.138Z,945.5
2023-03-06T08:35:09.001Z,945.4
2023-03-06T08:36:10.871Z,945.4
2023-03-06T08:37:12.806Z,945.4
2023-03-06T08:38:14.641Z,945.4
2023-03-06T08:39:16.491Z,945.5
2023-03-06T08:40:18.341Z,945.4
2023-03-06T08:41:20.819Z,945.4
2023-03-06T08:42:22.760Z,945.4
2023-03-06T08:43:27.159Z,945.4
2023-03-06T08:44:29.218Z,945.4
2023-03-06T08:45:31.304Z,945.4
2023-03-06T08:46:33.119Z,945.4
2023-03-06T08:47:35.019Z,945.5
2023-03-06T08:48:37.011Z,945.4
2023-03-06T08:49:38.879Z,945.4
2023-03-06T08:50:40.636Z,945.5
2023-03-06T08:51:42.248Z,945.5
2023-03-06T08:52:43.945Z,945.4
2023-03-06T08:53:45.775Z,945.5
2023-03-06T08:54:47.610Z,945.5
2023-03-06T08:55:49.564Z,945.4
2023-03-06T08:56:51.435Z,945.5
2023-03-06T08:57:53.276Z,945.5
2023-03-06T08:58:55.116Z,945.4
2023-03-06T08:59:56.967Z,945.4
2023-03-06T09:00:58.951Z,945.4
2023-03-06T09:02:01.306Z,945.4
2023-03-06T09:03:03.229Z,945.4
2023-03-06T09:04:05.119Z,945.4
2023-03-06T09:05:07.214Z,945.4
2023-03-06T09:06:09.093Z,945.4
2023-03-06T09:07:10.934Z,945.4
2023-03-06T09:08:12.795Z,945.4
2023-03-06T09:09:14.770Z,945.3
2023-03-06T09:10:16.879Z,945.3
2023-03-06T09:11:18.968Z,945.4
2023-03-06T09:12:21.107Z,945.4
2023-03-06T09:13:23.061Z,945.3
2023-03-06T09:14:24.910Z,945.3
2023-03-06T09:15:26.834Z,945.3
2023-03-06T09:16:28.618Z,945.4
2023-03-06T09:17:30.580Z,945.4
2023-03-06T09:18:32.518Z,945.4
2023-03-06T09:19:34.406Z,945.4
2023-03-06T09:20:36.196Z,945.4
2023-03-06T09:21:38.285Z,945.4
2023-03-06T09:22:40.135Z,945.3
2023-03-06T09:23:42.078Z,945.4
2023-03-06T09:24:43.928Z,945.4
2023-03-06T09:25:45.683Z,945.4
2023-03-06T09:26:51.933Z,945.3
2023-03-06T09:28:12.467Z,945.4
2023-03-06T09:29:14.234Z,945.4
2023-03-06T09:30:16.014Z,945.3
2023-03-06T09:31:18.142Z,945.3
2023-03-06T09:32:20.261Z,945.3
2023-03-06T09:33:22.266Z,945.3
2023-03-06T09:34:24.048Z,945.3
2023-03-06T09:35:26.020Z,945.3
2023-03-06T09:36:27.885Z,945.3
2023-03-06T09:37:29.694Z,945.2
2023-03-06T09:38:31.562Z,945.2
2023-03-06T09:39:33.391Z,945.2
2023-03-06T09:40:35.241Z,945.3
2023-03-06T09:41:37.023Z,945.3
2023-03-06T09:42:38.770Z,945.3
2023-03-06T09:43:40.580Z,945.3
2023-03-06T09:44:42.325Z,945.3
2023-03-06T09:45:44.420Z,945.3
2023-03-06T09:46:46.241Z,945.3
2023-03-06T09:47:48.183Z,945.2
2023-03-06T09:48:50.035Z,945.2
2023-03-06T09:49:51.795Z,945.2
2023-03-06T09:50:53.861Z,945.2
2023-03-06T09:51:55.798Z,945.2
2023-03-06T09:52:57.532Z,945.2
2023-03-06T09:53:59.388Z,945.2
2023-03-06T09:55:01.134Z,945.3
2023-03-06T09:56:02.822Z,945.2
2023-03-06T09:57:04.640Z,945.2
2023-03-06T09:58:08.024Z,945.2
2023-03-06T09:59:09.863Z,945.2
2023-03-06T10:00:11.667Z,945.2
2023-03-06T10:01:13.571Z,945.2
2023-03-06T10:02:15.834Z,945.1
2023-03-06T10:03:18.500Z,945.1
2023-03-06T10:04:20.653Z,945
2023-03-06T10:05:22.685Z,945
2023-03-06T10:06:24.588Z,945.1
2023-03-06T10:07:26.410Z,945
2023-03-06T10:08:28.251Z,945
2023-03-06T10:09:30.098Z,945
2023-03-06T10:10:31.857Z,945.1
2023-03-06T10:11:33.609Z,945
2023-03-06T10:12:35.365Z,945
2023-03-06T10:13:37.300Z,945
2023-03-06T10:14:39.011Z,945
2023-03-06T10:15:41.051Z,945
2023-03-06T10:16:42.962Z,945
2023-03-06T10:17:44.812Z,945
2023-03-06T10:18:46.647Z,944.9
2023-03-06T10:19:48.520Z,944.9
2023-03-06T10:20:50.348Z,944.9
2023-03-06T10:21:52.339Z,944.9
2023-03-06T10:23:05.589Z,944.9
2023-03-06T10:24:07.376Z,944.9
2023-03-06T10:25:09.322Z,944.8
2023-03-06T10:26:11.307Z,944.9
2023-03-06T10:27:13.511Z,944.9
2023-03-06T10:28:15.395Z,944.9
2023-03-06T10:29:17.231Z,944.8
2023-03-06T10:30:18.983Z,944.8
2023-03-06T10:31:20.987Z,944.8
2023-03-06T10:32:23.115Z,944.7
2023-03-06T10:33:24.961Z,944.7
2023-03-06T10:34:26.800Z,944.7
2023-03-06T10:35:31.332Z,944.7
2023-03-06T10:36:33.225Z,944.7
2023-03-06T10:37:35.002Z,944.7
2023-03-06T10:38:36.686Z,944.7
2023-03-06T10:39:38.330Z,944.7
2023-03-06T10:40:40.159Z,944.7
2023-03-06T10:41:42.011Z,944.7
2023-03-06T10:42:45.284Z,944.6
2023-03-06T10:43:47.037Z,944.6
2023-03-06T10:44:48.891Z,944.6
2023-03-06T10:45:50.873Z,944.6
2023-03-06T10:46:52.643Z,944.6
2023-03-06T10:47:54.275Z,944.6
2023-03-06T10:48:56.072Z,944.6
2023-03-06T10:49:57.826Z,944.6
2023-03-06T10:51:17.996Z,944.6
2023-03-06T10:52:20.669Z,944.5
2023-03-06T10:53:22.542Z,944.5
2023-03-06T10:54:24.370Z,944.5
2023-03-06T10:55:26.236Z,944.5
2023-03-06T10:56:28.056Z,944.4
2023-03-06T10:57:29.920Z,944.4
2023-03-06T10:58:31.640Z,944.4
2023-03-06T10:59:33.565Z,944.4
2023-03-06T11:00:35.580Z,944.4
2023-03-06T11:01:37.612Z,944.3
2023-03-06T11:02:39.700Z,944.3
2023-03-06T11:03:41.633Z,944.3
2023-03-06T11:04:43.528Z,944.3
2023-03-06T11:05:45.444Z,944.2
2023-03-06T11:06:47.191Z,944.2
2023-03-06T11:07:48.941Z,944.2
2023-03-06T11:08:50.722Z,944.2
2023-03-06T11:09:52.629Z,944.2
2023-03-06T11:10:54.480Z,944.2
2023-03-06T11:11:56.227Z,944.2
2023-03-06T11:12:58.182Z,944.1
2023-03-06T11:13:59.982Z,944.1
2023-03-06T11:15:02.062Z,944.1
2023-03-06T11:16:04.214Z,944.1
2023-03-06T11:17:06.100Z,944.1
2023-03-06T11:18:08.066Z,944.1
2023-03-06T11:19:09.833Z,944.1
2023-03-06T11:20:11.544Z,944.1
2023-03-06T11:21:13.396Z,944.1
2023-03-06T11:22:15.466Z,944.1
2023-03-06T11:23:17.240Z,944
2023-03-06T11:24:19.181Z,944
2023-03-06T11:25:21.213Z,944
2023-03-06T11:26:23.056Z,944
2023-03-06T11:27:24.861Z,944
2023-03-06T11:28:26.655Z,944
2023-03-06T11:29:31.224Z,944
2023-03-06T11:30:36.291Z,944
2023-03-06T11:31:38.408Z,944
2023-03-06T11:32:40.521Z,944
2023-03-06T11:33:42.454Z,943.9
2023-03-06T11:34:44.199Z,943.9
2023-03-06T11:35:46.181Z,943.9
2023-03-06T11:36:48.011Z,943.9
2023-03-06T11:37:49.966Z,943.9
2023-03-06T11:38:52.027Z,943.8
2023-03-06T11:39:53.891Z,943.8
2023-03-06T11:40:55.710Z,943.8
2023-03-06T11:41:57.467Z,943.8
2023-03-06T11:42:59.310Z,943.8
2023-03-06T11:44:01.162Z,943.8
2023-03-06T11:45:03.815Z,943.7
2023-03-06T11:46:05.983Z,943.7
2023-03-06T11:47:07.735Z,943.6
2023-03-06T11:48:09.582Z,943.6
2023-03-06T11:49:11.433Z,943.6
2023-03-06T11:50:13.214Z,943.6
2023-03-06T11:51:15.043Z,943.5
2023-03-06T11:52:16.980Z,943.5
2023-03-06T11:53:18.947Z,943.5
2023-03-06T11:54:20.802Z,943.5
2023-03-06T11:55:22.655Z,943.5
2023-03-06T11:56:24.488Z,943.5
2023-03-06T11:57:26.349Z,943.4
2023-03-06T11:58:28.191Z,943.5
2023-03-06T11:59:30.036Z,943.4
2023-03-06T12:00:31.862Z,943.4
2023-03-06T12:01:33.587Z,943.4
2023-03-06T12:02:35.384Z,943.4
2023-03-06T12:03:37.336Z,943.4
2023-03-06T12:04:39.209Z,943.4
2023-03-06T12:05:41.324Z,943.4
2023-03-06T12:06:43.232Z,943.4
2023-03-06T12:07:45.045Z,943.4
2023-03-06T12:08:46.795Z,943.4
2023-03-06T12:09:48.655Z,943.3
2023-03-06T12:10:52.674Z,943.3
2023-03-06T12:11:54.503Z,943.3
2023-03-06T12:12:56.338Z,943.3
2023-03-06T12:14:03.671Z,943.3
2023-03-06T12:15:06.090Z,943.3
2023-03-06T12:16:08.212Z,943.3
2023-03-06T12:17:10.204Z,943.3
2023-03-06T12:18:12.042Z,943.2
2023-03-06T12:19:13.788Z,943.2
2023-03-06T12:20:15.822Z,943.3
2023-03-06T12:21:17.664Z,943.2
2023-03-06T12:22:19.556Z,943.2
2023-03-06T12:23:21.300Z,943.2
2023-03-06T12:24:23.143Z,943.2
2023-03-06T12:25:24.891Z,943.2
2023-03-06T12:26:26.786Z,943.2
2023-03-06T12:27:28.697Z,943.2
2023-03-06T12:28:30.540Z,943.2
2023-03-06T12:29:32.267Z,943.2
2023-03-06T12:30:34.052Z,943.1
2023-03-06T12:31:35.942Z,943.2
2023-03-06T12:32:38.039Z,943.2
2023-03-06T12:33:40.062Z,943.1
2023-03-06T12:34:41.846Z,943.1
2023-03-06T12:35:44.057Z,943.1
2023-03-06T12:36:45.862Z,943.2
2023-03-06T12:37:47.654Z,943.2
2023-03-06T12:38:49.455Z,943.1
2023-03-06T12:39:51.630Z,943.1
2023-03-06T12:40:53.678Z,943.1
2023-03-06T12:41:55.507Z,943.1
2023-03-06T12:42:57.373Z,943.1
2023-03-06T12:43:59.213Z,943
2023-03-06T12:45:01.239Z,943.1
2023-03-06T12:46:03.376Z,943.1
2023-03-06T12:47:05.328Z,943.1
2023-03-06T12:48:07.028Z,943.2
2023-03-06T12:49:08.915Z,943.2
2023-03-06T12:50:10.719Z,943.2
2023-03-06T12:51:12.573Z,943.1
2023-03-06T12:52:28.502Z,943.1
2023-03-06T12:53:32.403Z,943
2023-03-06T12:54:34.416Z,943
2023-03-06T12:55:36.269Z,943
2023-03-06T12:56:38.005Z,943
2023-03-06T12:57:39.725Z,943
2023-03-06T12:58:41.794Z,943
2023-03-06T12:59:43.676Z,943
2023-03-06T13:00:58.597Z,943
2023-03-06T13:02:06.145Z,942.9
2023-03-06T13:03:08.151Z,942.9
2023-03-06T13:04:09.901Z,942.9
2023-03-06T13:05:11.750Z,942.9
2023-03-06T13:06:14.020Z,942.8
2023-03-06T13:07:15.869Z,942.9
2023-03-06T13:08:17.721Z,942.8
2023-03-06T13:09:19.590Z,942.8
2023-03-06T13:10:21.452Z,942.8
2023-03-06T13:11:23.269Z,942.8
2023-03-06T13:12:25.129Z,942.8
2023-03-06T13:13:27.099Z,942.7
2023-03-06T13:14:29.024Z,942.8
2023-03-06T13:15:30.977Z,942.8
2023-03-06T13:16:32.895Z,942.8
2023-03-06T13:17:34.802Z,942.8
2023-03-06T13:18:36.617Z,942.8
2023-03-06T13:19:38.478Z,942.8
2023-03-06T13:20:40.329Z,942.7
2023-03-06T13:21:42.090Z,942.7
2023-03-06T13:22:43.967Z,942.7
2023-03-06T13:23:45.778Z,942.7
2023-03-06T13:25:00.385Z,942.7
2023-03-06T13:26:10.160Z,942.7
2023-03-06T13:27:11.955Z,942.7
2023-03-06T13:28:13.963Z,942.7
2023-03-06T13:29:15.883Z,942.7